Latest Weather Observations for Tunnack

IDT60801

Issued at 3:02 am EDT Friday 9 December 2016 (issued every 30 minutes, with the page automatically refreshed every 10 minutes)

About weather observations | Map of weather stations | Latest weather observations for TAS | Other Formats
Station Details ID: 094195 Name: TUNNACK FIRE STATION Lat: -42.45 Lon: 147.46 Height: 461.5 m
Data from the previous 72 hours. | See also: Recent months at Tunnack
Date/Time
EDT
Temp
°C
App
Temp
°C
Dew
Point
°C
Rel
Hum
%
Delta-T
°C
Wind Press
QNH
hPa
Press
MSL
hPa
Rain since
9am
mm
Dir  Spd
km/h
Gust
km/h
Spd
kts
Gust
kts
09/02:30am 6.5 0.4 2.9 78 1.6 WSW 24 41 13 22 996.2 995.5 1.0
09/02:10am 6.5 -0.3 2.9 78 1.5 WSW 28 46 15 25 995.7 995.0 1.0
09/02:00am 6.6 0.5 3.0 78 1.6 WSW 24 43 13 23 995.4 994.7 1.0
09/01:30am 6.9 -0.6 3.2 77 1.6 WSW 32 54 17 29 994.4 993.6 1.0
09/01:01am 7.8 0.2 3.7 75 1.8 WSW 33 57 18 31 993.8 993.1 1.0
09/01:00am 7.7 0.1 3.7 76 1.8 WSW 33 48 18 26 993.9 993.2 1.0
09/12:30am 8.2 0.9 4.4 77 1.7 WSW 32 54 17 29 993.1 992.4 1.0
09/12:02am 8.8 1.6 5.2 78 1.7 WSW 32 54 17 29 992.1 991.3 1.0
09/12:00am 8.7 1.6 5.3 79 1.6 WSW 32 46 17 25 992.1 991.3 1.0
 
Date/Time
EDT
Temp
°C
App
Temp
°C
Dew
Point
°C
Rel
Hum
%
Delta-T
°C
Wind Press
QNH
hPa
Press
MSL
hPa
Rain since
9am
mm
Dir  Spd
km/h
Gust
km/h
Spd
kts
Gust
kts
08/11:30pm 9.0 1.4 5.9 81 1.5 WSW 35 57 19 31 990.9 990.1 1.0
08/11:00pm 10.4 2.5 6.4 76 1.9 W 37 59 20 32 990.0 989.2 0.8
08/10:37pm 10.6 4.7 7.7 82 1.4 W 28 46 15 25 989.2 988.4 0.8
08/10:30pm 10.4 5.3 7.8 84 1.3 W 24 39 13 21 989.0 988.2 0.8
08/10:00pm 11.5 6.6 7.0 74 2.2 W 22 37 12 20 988.2 987.4 0.6
08/09:30pm 11.9 5.5 7.0 72 2.4 W 30 52 16 28 987.4 986.5 0.6
08/09:03pm 12.2 5.2 6.9 70 2.6 WNW 33 52 18 28 986.4 985.6 0.6
08/09:00pm 12.2 4.8 6.9 70 2.6 WNW 35 52 19 28 986.2 985.4 0.6
08/08:40pm 12.8 3.7 5.9 63 3.3 WNW 43 65 23 35 985.1 984.2 0.6
08/08:30pm 12.9 3.6 5.8 62 3.4 WNW 44 63 24 34 984.6 983.8 0.6
08/08:00pm 13.6 6.4 6.0 60 3.8 NW 33 52 18 28 984.4 983.6 0.6
08/07:53pm 13.6 7.4 6.0 60 3.7 NW 28 46 15 25 984.5 983.7 0.6
08/07:30pm 12.2 6.3 9.0 81 1.6 N 30 44 16 24 983.6 982.7 0.6
08/07:00pm 11.8 5.7 9.7 87 1.1 N 32 44 17 24 983.9 983.1 0.6
08/06:46pm 12.1 5.8 9.7 85 1.3 N 33 52 18 28 983.8 983.0 0.6
08/06:30pm 12.3 4.9 9.7 84 1.4 N 39 54 21 29 983.7 982.8 0.6
08/06:06pm 12.2 4.6 9.2 82 1.5 N 39 59 21 32 984.0 983.2 0.6
08/06:00pm 12.3 4.7 9.1 81 1.7 N 39 52 21 28 984.1 983.3 0.6
08/05:30pm 13.0 4.5 9.3 78 1.9 N 44 65 24 35 984.2 983.4 0.6
08/05:04pm 12.7 3.2 8.4 75 2.2 N 48 67 26 36 984.6 983.8 0.6
08/05:00pm 12.9 3.1 8.6 75 2.2 N 50 67 27 36 984.6 983.8 0.6
08/04:30pm 14.1 2.9 8.5 69 2.9 N 57 87 31 47 984.2 983.4 0.6
08/04:00pm 15.0 3.8 8.5 65 3.4 N 57 80 31 43 984.6 983.8 0.6
08/03:30pm 15.1 4.7 9.2 68 3.1 N 54 72 29 39 985.7 984.9 0.6
08/03:02pm 15.0 4.2 9.8 71 2.8 N 57 76 31 41 986.1 985.3 0.6
08/03:00pm 15.2 4.7 10.2 72 2.7 N 56 72 30 39 986.2 985.4 0.6
08/02:30pm 15.6 6.1 9.9 69 3.0 N 50 69 27 37 986.6 985.8 0.6
08/02:00pm 15.8 6.7 12.5 81 1.9 N 52 76 28 41 987.0 986.2 0.6
08/01:30pm 14.2 4.8 12.6 90 0.9 N 54 76 29 41 987.6 986.8 0.6
08/01:03pm 14.6 6.3 12.6 88 1.1 N 48 69 26 37 988.1 987.3 0.6
08/01:00pm 14.7 6.5 12.9 89 1.0 N 48 65 26 35 988.2 987.4 0.6
08/12:32pm 15.2 7.5 13.2 88 1.1 N 46 67 25 36 988.5 987.7 0.6
08/12:30pm 15.1 7.8 13.5 90 0.9 N 44 61 24 33 988.6 987.8 0.6
08/12:12pm 14.2 7.3 12.9 92 0.7 N 41 59 22 32 989.6 988.8 0.6
08/12:00pm 13.7 6.1 12.4 92 0.7 N 44 61 24 33 989.6 988.8 0.6
08/11:45am 13.0 7.0 12.1 94 0.5 N 35 54 19 29 990.0 989.2 0.4
08/11:30am 12.9 6.8 11.6 92 0.7 N 35 50 19 27 990.5 989.7 0.0
08/11:04am 13.0 6.5 11.6 91 0.8 N 37 56 20 30 990.7 989.9 0.0
08/11:00am 12.9 6.7 11.5 91 0.8 N 35 50 19 27 990.7 989.9 0.0
08/10:30am 12.6 5.5 11.0 90 0.9 N 39 63 21 34 991.4 990.7 0.0
08/10:10am 11.7 3.5 10.3 91 0.7 N 44 63 24 34 992.3 991.5 0.0
08/10:00am 11.8 2.8 10.2 90 0.8 N 48 65 26 35 992.2 991.4 0.0
08/09:35am 10.8 3.2 9.1 89 0.9 N 39 59 21 32 993.1 992.4 0.0
08/09:30am 10.6 3.0 8.9 89 0.9 N 39 54 21 29 993.1 992.4 0.0
08/09:00am 10.4 2.1 7.6 83 1.4 N 41 69 22 37 994.5 993.7 0.2
08/08:58am 10.5 2.1 7.4 81 1.5 N 41 69 22 37 994.5 993.7 0.2
08/08:34am 10.9 4.1 6.8 76 2.0 N 32 50 17 27 995.3 994.6 0.2
08/08:30am 10.8 3.4 6.7 76 2.0 N 35 44 19 24 995.7 995.0 0.2
08/08:00am 10.3 2.3 5.5 72 2.3 N 37 57 20 31 996.9 996.2 0.2
08/07:33am 10.4 4.0 5.4 71 2.3 N 28 46 15 25 997.5 996.8 0.2
08/07:30am 10.4 4.4 5.4 71 2.3 NNE 26 35 14 19 997.5 996.8 0.2
08/07:00am 10.2 4.6 5.6 73 2.2 N 24 41 13 22 998.1 997.4 0.2
08/06:30am 9.6 4.6 6.3 80 1.6 N 22 33 12 18 998.9 998.2 0.2
08/06:00am 9.4 5.7 6.3 81 1.5 NNE 15 28 8 15 999.5 998.8 0.2
08/05:30am 10.4 4.1 5.8 73 2.2 N 28 44 15 24 1000.5 999.8 0.0
08/05:00am 10.0 6.1 6.9 81 1.5 N 17 32 9 17 1001.1 1000.4 0.0
08/04:30am 9.5 6.4 7.1 85 1.2 NNE 13 32 7 17 1001.1 1000.4 0.0
08/04:00am 9.1 4.3 7.5 90 0.8 N 22 30 12 16 1001.9 1001.2 0.0
08/03:30am 9.5 5.2 7.8 89 0.8 N 20 35 11 19 1002.6 1002.0 0.0
08/03:00am 10.0 5.2 8.8 92 0.6 N 24 35 13 19 1003.1 1002.5 0.0
08/02:30am 10.2 7.5 8.8 91 0.7 NNE 13 24 7 13 1003.7 1003.0 0.0
08/02:00am 10.3 6.8 8.9 91 0.7 NNE 17 24 9 13 1004.3 1003.7 0.0
08/01:30am 10.0 5.5 8.6 91 0.7 N 22 35 12 19 1005.2 1004.6 0.0
08/01:00am 10.5 6.6 9.3 92 0.6 N 20 32 11 17 1005.9 1005.2 0.0
08/12:30am 10.5 7.9 9.3 92 0.6 NNE 13 19 7 10 1006.3 1005.7 0.0
08/12:00am 10.6 8.8 9.4 92 0.6 E 9 15 5 8 1007.1 1006.5 0.0
 
Date/Time
EDT
Temp
°C
App
Temp
°C
Dew
Point
°C
Rel
Hum
%
Delta-T
°C
Wind Press
QNH
hPa
Press
MSL
hPa
Rain since
9am
mm
Dir  Spd
km/h
Gust
km/h
Spd
kts
Gust
kts
07/11:30pm 10.4 8.0 8.8 90 0.8 N 11 19 6 10 1007.6 1007.0 0.0
07/11:00pm 11.1 6.4 9.4 89 0.9 N 24 37 13 20 1007.7 1007.1 0.0
07/10:30pm 11.4 6.4 9.5 88 1.0 N 26 35 14 19 1007.7 1007.1 0.0
07/10:00pm 11.7 6.3 9.6 87 1.1 N 28 37 15 20 1008.5 1007.9 0.0
07/09:30pm 12.1 8.3 9.7 85 1.3 N 20 32 11 17 1008.7 1008.1 0.0
07/09:00pm 12.5 7.9 9.7 83 1.5 N 24 32 13 17 1008.4 1007.8 0.0
07/08:30pm 12.8 7.9 9.8 82 1.6 N 26 33 14 18 1008.6 1008.0 0.0
07/08:00pm 13.4 8.8 9.8 79 1.9 N 24 35 13 19 1008.6 1008.0 0.0
07/07:30pm 14.0 9.5 10.0 77 2.1 N 24 35 13 19 1008.6 1008.0 0.0
07/07:00pm 14.8 11.1 10.2 74 2.5 N 20 35 11 19 1008.8 1008.2 0.0
07/06:30pm 14.5 9.6 9.9 74 2.4 N 26 41 14 22 1008.8 1008.2 0.0
07/06:00pm 15.2 11.2 10.4 73 2.6 N 22 33 12 18 1008.9 1008.3 0.0
07/05:30pm 15.3 9.7 10.1 71 2.8 N 30 41 16 22 1008.9 1008.3 0.0
07/05:00pm 16.4 10.8 10.3 67 3.3 N 30 43 16 23 1009.1 1008.5 0.0
07/04:30pm 17.3 12.2 10.7 65 3.6 N 28 33 15 18 1009.0 1008.4 0.0
07/04:00pm 17.5 13.8 9.4 59 4.3 NNW 19 28 10 15 1009.1 1008.5 0.0
07/03:30pm 18.5 15.6 6.4 45 6.1 NNW 11 20 6 11 1009.4 1008.8 0.0
07/03:00pm 20.1 16.5 8.4 47 6.3 WNW 17 30 9 16 1009.6 1009.0 0.0
07/02:30pm 20.2 17.7 9.7 51 5.7 WNW 13 26 7 14 1009.6 1009.0 0.0
07/02:00pm 20.1 16.7 9.1 49 6.0 WNW 17 26 9 14 1009.7 1009.1 0.0
07/01:30pm 17.3 13.9 9.2 59 4.3 N 17 24 9 13 1010.0 1009.5 0.0
07/01:00pm 16.4 13.2 8.4 59 4.2 N 15 22 8 12 1010.4 1009.8 0.0
07/12:30pm 18.0 13.9 7.7 51 5.4 WNW 19 30 10 16 1010.5 1009.9 0.0
07/12:00pm 17.9 14.0 8.5 54 5.0 WNW 19 30 10 16 1010.8 1010.2 0.0
07/11:30am 15.8 11.2 8.3 61 3.9 WNW 22 32 12 17 1011.0 1010.4 0.0
07/11:00am 16.2 10.5 8.4 60 4.1 WNW 28 39 15 21 1011.2 1010.6 0.0
07/10:30am 15.1 10.4 5.9 54 4.5 NNW 20 32 11 17 1011.2 1010.6 0.0
07/10:00am 15.1 8.5 6.1 55 4.4 NW 30 44 16 24 1011.3 1010.7 0.0
07/09:30am 14.7 9.2 7.5 62 3.6 NW 26 35 14 19 1011.5 1010.9 0.0
07/09:00am 12.7 8.6 6.1 64 3.2 NW 17 24 9 13 1011.9 1011.4 0.0
07/08:30am 12.7 8.5 5.8 63 3.3 NNW 17 24 9 13 1011.8 1011.3 0.0
07/08:00am 11.8 7.5 5.4 65 3.0 NNW 17 28 9 15 1011.6 1011.0 0.0
07/07:30am 11.2 8.3 4.9 65 2.9 NW 9 17 5 9 1011.5 1010.9 0.0
07/07:00am 10.5 8.2 4.6 67 2.7 ENE 6 9 3 5 1011.4 1010.8 0.0
07/06:30am 8.2 5.2 4.0 75 1.9 N 9 13 5 7 1011.3 1010.7 0.0
07/06:00am 7.0 3.5 3.3 77 1.6 NNW 11 13 6 7 1011.1 1010.5 0.0
07/05:30am 7.1 3.2 3.3 77 1.7 WNW 13 19 7 10 1011.0 1010.4 0.0
07/05:00am 7.8 2.9 4.0 77 1.7 WNW 19 28 10 15 1010.6 1010.0 0.0
07/04:30am 5.7 4.2 3.0 83 1.1 CALM 0 0 0 0 1010.4 1009.8 0.0
07/04:00am 7.2 4.6 3.3 76 1.7 NW 6 9 3 5 1010.2 1009.6 0.0
07/03:30am 8.2 5.1 3.7 73 2.0 WNW 9 17 5 9 1010.4 1009.8 0.0
07/03:00am 7.6 6.2 3.8 77 1.7 CALM 0 0 0 0 1010.7 1010.1 0.0
07/02:30am 8.3 5.3 4.1 75 1.9 WNW 9 17 5 9 1010.8 1010.2 0.0
07/02:00am 8.1 5.7 4.1 76 1.8 NW 6 11 3 6 1010.9 1010.3 0.0
07/01:30am 8.1 5.5 4.1 76 1.8 ENE 7 11 4 6 1010.9 1010.3 0.0
07/01:00am 9.1 2.9 4.5 73 2.1 NW 26 33 14 18 1010.7 1010.1 0.0
07/12:30am 8.9 5.2 4.7 75 1.9 WNW 13 20 7 11 1011.1 1010.5 0.0
07/12:00am 9.5 4.5 4.7 72 2.2 WNW 20 30 11 16 1011.2 1010.6 0.0
 
Date/Time
EDT
Temp
°C
App
Temp
°C
Dew
Point
°C
Rel
Hum
%
Delta-T
°C
Wind Press
QNH
hPa
Press
MSL
hPa
Rain since
9am
mm
Dir  Spd
km/h
Gust
km/h
Spd
kts
Gust
kts
06/11:30pm 8.8 6.8 4.4 74 2.0 NW 4 13 2 7 1011.2 1010.6 0.0
06/11:00pm 9.0 7.0 4.6 74 2.0 ENE 4 7 2 4 1011.3 1010.7 0.0
06/10:30pm 9.0 6.1 4.4 73 2.1 WNW 9 13 5 7 1011.2 1010.6 0.0
06/10:00pm 9.7 7.0 3.9 67 2.6 W 7 11 4 6 1011.2 1010.6 0.0
06/09:30pm 10.5 7.4 3.8 63 3.0 W 9 17 5 9 1011.2 1010.6 0.0
06/09:00pm 10.4 6.1 3.4 62 3.1 W 15 20 8 11 1011.0 1010.4 0.0
06/08:30pm 11.1 6.4 3.4 59 3.5 W 17 30 9 16 1010.6 1010.0 0.0
06/08:00pm 12.0 6.9 4.0 58 3.7 W 20 30 11 16 1010.3 1009.7 0.0
06/07:30pm 12.8 7.9 4.3 56 4.0 W 19 32 10 17 1009.8 1009.2 0.0
06/07:00pm 13.3 8.4 4.2 54 4.3 W 19 30 10 16 1009.5 1008.9 0.0
06/06:30pm 13.9 8.6 3.1 48 5.0 WSW 20 30 11 16 1009.3 1008.7 0.0
06/06:00pm 13.8 9.0 4.9 55 4.3 WSW 19 26 10 14 1009.1 1008.5 0.0
06/05:30pm 13.9 9.3 3.9 51 4.7 WSW 17 24 9 13 1008.8 1008.2 0.0
06/05:00pm 15.8 11.2 5.4 50 5.1 WSW 19 30 10 16 1008.9 1008.3 0.0
06/04:30pm 15.7 11.2 5.9 52 4.8 SW 19 30 10 16 1008.9 1008.3 0.0
06/04:00pm 14.8 9.3 4.2 49 5.0 W 22 32 12 17 1008.9 1008.3 0.0
06/03:30pm 15.9 9.9 5.2 49 5.2 W 26 39 14 21 1008.9 1008.3 0.0
06/03:00pm 16.1 10.7 6.5 53 4.8 W 24 39 13 21 1008.8 1008.2 0.0
06/02:30pm 15.2 10.4 5.7 53 4.7 WSW 20 41 11 22 1008.8 1008.2 0.0
06/02:00pm 14.6 9.4 5.7 55 4.4 WSW 22 32 12 17 1008.8 1008.2 0.0
06/01:30pm 14.9 10.3 5.7 54 4.5 WSW 19 28 10 15 1009.0 1008.4 0.0
06/01:00pm 14.5 10.4 7.8 64 3.4 WSW 19 26 10 14 1009.4 1008.8 0.0
06/12:30pm 14.0 9.9 6.4 60 3.7 WSW 17 22 9 12 1009.6 1009.0 0.0
06/12:00pm 13.9 9.9 6.7 62 3.6 WSW 17 30 9 16 1009.9 1009.4 0.0
06/11:30am 13.1 8.6 6.9 66 3.1 WSW 20 28 11 15 1010.0 1009.5 0.0
06/11:00am 13.1 9.2 6.9 66 3.1 SW 17 24 9 13 1009.6 1009.0 0.0
06/10:30am 12.0 8.9 5.6 65 3.1 SSW 11 19 6 10 1009.6 1009.0 0.0
06/10:00am 10.8 7.2 5.1 68 2.7 SW 13 20 7 11 1009.8 1009.2 0.0
06/09:30am 10.4 8.2 6.2 75 2.0 SW 7 11 4 6 1010.2 1009.6 0.0
06/09:00am 9.7 7.8 6.6 81 1.5 W 6 11 3 6 1010.5 1009.9 0.8
06/08:30am 9.3 6.7 6.2 81 1.5 WNW 9 13 5 7 1011.1 1010.5 0.8
06/08:00am 9.3 7.4 7.7 90 0.8 SW 7 11 4 6 1011.0 1010.4 0.8
06/07:30am 9.2 7.4 8.0 92 0.6 SSW 7 11 4 6 1010.8 1010.2 0.8
06/07:00am 9.0 7.2 8.1 94 0.4 SW 7 9 4 5 1010.9 1010.3 0.8
06/06:30am 8.9 7.7 8.1 95 0.4 SSE 4 9 2 5 1010.7 1010.1 0.8
06/06:00am 9.9 9.7 9.1 95 0.4 CALM 0 0 0 0 1010.4 1009.8 0.8
06/05:30am 9.7 8.3 8.9 95 0.4 ENE 6 11 3 6 1009.9 1009.4 0.8
06/05:00am 9.6 7.6 8.8 95 0.4 NE 9 11 5 6 1009.7 1009.1 0.8
06/04:30am 9.7 7.4 8.9 95 0.4 ENE 11 17 6 9 1009.8 1009.2 0.8
06/04:00am 9.6 7.6 8.8 95 0.4 ENE 9 13 5 7 1009.9 1009.4 0.6
06/03:30am 9.5 7.5 8.7 95 0.4 ENE 9 15 5 8 1010.0 1009.5 0.4

Other Formats:

Comma delimited format used in spreadsheet applications
http://www.bom.gov.au/fwo/IDT60801/IDT60801.94960.axf

JavaScript Object Notation format (JSON) in row-major order
http://www.bom.gov.au/fwo/IDT60801/IDT60801.94960.json